Time;durP1;ratioP1;P1;durP2;ratioP2;P2;SDS_P1;SDS_P2;PMS_P1;PMS_P2;Temp;Humidity;BMP_temperature;BMP_pressure;BME280_temperature;BME280_humidity;BME280_pressure;Samples;Min_cycle;Max_cycle;Signal;HPM_P1;HPM_P2
2021/04/21 00:02:15;;;;;;;6.12;4.67;;;;;;;20.51;54.30;100509.13;1756528;79;21177;-61
2021/04/21 00:04:44;;;;;;;6.22;4.53;;;;;;;20.51;54.30;100511.32;1753117;80;21264;-61
2021/04/21 00:07:16;;;;;;;7.22;4.65;;;;;;;20.52;54.30;100510.75;1751425;79;21163;-61
2021/04/21 00:09:44;;;;;;;5.95;4.12;;;;;;;20.52;54.26;100503.84;1726191;81;21177;-61
2021/04/21 00:12:10;;;;;;;4.95;3.83;;;;;;;20.53;54.25;100504.09;1780366;78;21499;-62
2021/04/21 00:14:37;;;;;;;5.78;4.00;;;;;;;20.51;54.25;100507.17;1751432;80;21222;-61
2021/04/21 00:17:03;;;;;;;5.17;3.90;;;;;;;20.51;54.33;100507.73;1787309;78;21202;-61
2021/04/21 00:19:31;;;;;;;5.78;3.37;;;;;;;20.49;54.42;100508.08;1767446;79;21430;-61
2021/04/21 00:21:58;;;;;;;5.67;3.37;;;;;;;20.49;54.51;100511.41;1744849;81;21190;-61
2021/04/21 00:24:26;;;;;;;5.42;3.98;;;;;;;20.47;54.57;100510.34;1780758;78;21063;-61
2021/04/21 00:26:52;;;;;;;4.92;3.35;;;;;;;20.46;54.67;100511.47;1785438;78;21198;-61
2021/04/21 00:29:19;;;;;;;4.60;3.08;;;;;;;20.46;54.70;100515.62;1763549;80;21202;-61
2021/04/21 00:31:46;;;;;;;5.40;3.08;;;;;;;20.48;54.77;100509.78;1786265;79;21174;-61
2021/04/21 00:34:13;;;;;;;5.12;3.47;;;;;;;20.49;54.81;100512.80;1749300;80;21122;-61
2021/04/21 00:36:41;;;;;;;3.83;2.87;;;;;;;20.48;54.82;100514.73;1752513;80;21162;-61
2021/04/21 00:39:10;;;;;;;5.90;3.27;;;;;;;20.47;54.84;100513.11;1759769;80;21477;-60
2021/04/21 00:41:56;;;;;;;4.33;2.95;;;;;;;20.47;54.86;100515.05;1751682;81;21229;-60
2021/04/21 00:45:01;;;;;;;4.25;3.02;;;;;;;20.45;54.91;100509.84;1764526;80;21186;-61
2021/04/21 00:47:41;;;;;;;4.58;3.17;;;;;;;20.43;54.93;100510.75;1767910;80;21195;-62
2021/04/21 00:50:41;;;;;;;5.70;3.40;;;;;;;20.41;55.00;100510.84;1764929;80;21182;-60
2021/04/21 00:53:17;;;;;;;4.50;3.30;;;;;;;20.40;55.04;100507.82;1762631;79;21131;-61
2021/04/21 00:56:25;;;;;;;5.78;3.52;;;;;;;20.42;55.06;100512.44;1758092;79;21199;-61
2021/04/21 00:59:09;;;;;;;4.22;3.30;;;;;;;20.42;55.08;100517.97;1755109;79;21238;-61
2021/04/21 01:01:36;;;;;;;4.33;3.17;;;;;;;20.42;55.09;100514.64;1737844;79;21217;-61
2021/04/21 01:04:03;;;;;;;4.45;2.98;;;;;;;20.41;55.08;100517.75;1674860;81;21244;-61
2021/04/21 01:06:42;;;;;;;4.90;3.37;;;;;;;20.39;55.10;100515.30;1710294;81;21147;-61
2021/04/21 01:09:08;;;;;;;4.42;3.10;;;;;;;20.37;55.14;100516.73;1753770;80;21200;-61
2021/04/21 01:11:56;;;;;;;3.60;3.00;;;;;;;20.36;55.18;100519.27;1759230;80;21091;-61
2021/04/21 01:14:30;;;;;;;5.10;3.30;;;;;;;20.35;55.22;100520.41;1715976;80;21188;-61
2021/04/21 01:17:07;;;;;;;4.15;2.98;;;;;;;20.34;55.28;100517.39;1750818;80;21207;-61
2021/04/21 01:20:03;;;;;;;3.50;2.85;;;;;;;20.34;55.30;100519.59;1754806;80;21555;-61
2021/04/21 01:23:14;;;;;;;4.42;3.30;;;;;;;20.35;55.32;100517.08;1755989;80;21267;-60
2021/04/21 01:26:28;;;;;;;4.78;3.00;;;;;;;20.37;55.31;100516.17;1756394;80;21625;-61
2021/04/21 01:28:54;;;;;;;3.15;2.27;;;;;;;20.36;55.28;100515.95;1753455;80;22474;-61
2021/04/21 01:31:22;;;;;;;4.70;3.05;;;;;;;20.33;55.28;100506.08;1701437;80;21213;-61
2021/04/21 01:33:51;;;;;;;3.67;2.65;;;;;;;20.32;55.28;100508.06;1758869;80;21219;-61
2021/04/21 01:36:22;;;;;;;3.75;2.90;;;;;;;20.30;55.33;100502.59;1758062;80;21192;-61
2021/04/21 01:38:48;;;;;;;4.90;2.45;;;;;;;20.29;55.37;100505.07;1754988;80;23350;-62
2021/04/21 01:41:18;;;;;;;3.50;2.45;;;;;;;20.28;55.42;100503.47;1755772;80;21078;-61
2021/04/21 01:44:00;;;;;;;3.20;2.58;;;;;;;20.29;55.45;100510.06;1758570;80;21185;-60
2021/04/21 01:46:29;;;;;;;4.00;2.70;;;;;;;20.30;55.46;100514.46;1753360;80;21227;-61
2021/04/21 01:49:29;;;;;;;4.35;2.77;;;;;;;20.31;55.45;100507.81;1752138;80;22151;-61
2021/04/21 01:52:03;;;;;;;4.05;2.80;;;;;;;20.32;55.44;100515.53;1767910;79;21844;-60
2021/04/21 01:54:30;;;;;;;4.03;2.40;;;;;;;20.31;55.45;100515.28;1786001;79;21200;-61
2021/04/21 01:57:07;;;;;;;3.77;2.80;;;;;;;20.30;55.46;100515.02;1751599;78;21217;-61
2021/04/21 01:59:49;;;;;;;3.30;2.62;;;;;;;20.28;55.46;100516.72;1784853;79;21151;-61
2021/04/21 02:02:32;;;;;;;3.75;2.37;;;;;;;20.27;55.48;100515.65;1786918;78;21216;-61
2021/04/21 02:05:23;;;;;;;4.03;2.52;;;;;;;20.26;55.50;100516.77;1785932;78;21466;-62
2021/04/21 02:08:18;;;;;;;3.42;2.55;;;;;;;20.25;55.55;100529.77;1790210;79;21131;-61
2021/04/21 02:11:14;;;;;;;2.85;2.33;;;;;;;20.29;55.58;100516.97;1801287;78;23119;-61
2021/04/21 02:14:05;;;;;;;3.10;2.37;;;;;;;20.26;55.56;100518.16;1736341;81;21151;-61
2021/04/21 02:16:58;;;;;;;2.90;2.33;;;;;;;20.26;55.54;100520.92;1773805;79;21235;-61
2021/04/21 02:19:57;;;;;;;3.27;2.40;;;;;;;20.24;55.53;100524.59;1740862;81;21202;-62
2021/04/21 02:22:37;;;;;;;3.62;2.67;;;;;;;20.22;55.54;100524.90;1762909;80;21174;-61
2021/04/21 02:25:25;;;;;;;2.90;2.37;;;;;;;20.20;55.55;100524.98;1730289;80;21107;-60
2021/04/21 02:28:19;;;;;;;3.40;2.40;;;;;;;20.18;55.59;100528.06;1767901;79;21109;-61
2021/04/21 02:31:20;;;;;;;3.30;2.30;;;;;;;20.18;55.60;100529.44;1768439;79;21242;-62
2021/04/21 02:34:24;;;;;;;3.05;2.33;;;;;;;20.18;55.63;100534.15;1761517;79;21509;-62
2021/04/21 02:37:15;;;;;;;3.72;2.70;;;;;;;20.18;55.62;100533.58;1743759;81;21075;-61
2021/04/21 02:40:18;;;;;;;3.40;2.93;;;;;;;20.17;55.61;100530.56;1764731;78;21154;-62
2021/04/21 02:43:08;;;;;;;4.75;2.50;;;;;;;20.17;55.61;100536.09;1765748;80;21539;-61
2021/04/21 02:46:00;;;;;;;3.55;2.52;;;;;;;20.16;55.59;100537.78;1761177;80;21212;-61
2021/04/21 02:49:05;;;;;;;3.95;2.70;;;;;;;20.13;55.61;100542.02;1758652;80;21179;-62
2021/04/21 02:51:53;;;;;;;3.58;2.47;;;;;;;20.12;55.62;100535.42;1768425;80;21598;-62
2021/04/21 02:55:13;;;;;;;3.08;2.17;;;;;;;20.08;55.67;100529.16;1766691;80;21170;-62
2021/04/21 02:57:57;;;;;;;4.05;2.50;;;;;;;20.10;55.69;100533.56;1763561;80;21463;-61
2021/04/21 03:00:32;;;;;;;4.00;3.05;;;;;;;20.11;55.69;100531.87;1755600;80;21214;-62
2021/04/21 03:03:45;;;;;;;4.37;2.72;;;;;;;20.12;55.67;100534.85;1744384;80;21162;-61
2021/04/21 03:06:16;;;;;;;3.20;2.37;;;;;;;20.12;55.68;100535.42;1766647;79;21007;-61
2021/04/21 03:08:48;;;;;;;4.92;2.83;;;;;;;20.10;55.66;100536.32;1772712;79;21148;-61
2021/04/21 03:11:23;;;;;;;3.90;2.52;;;;;;;20.08;55.67;100544.91;1770586;80;21115;-63
2021/04/21 03:14:07;;;;;;;3.77;2.65;;;;;;;20.06;55.70;100538.91;1769382;79;21271;-62
2021/04/21 03:16:37;;;;;;;4.10;2.62;;;;;;;20.04;55.71;100547.51;1774631;79;21163;-61
2021/04/21 03:19:08;;;;;;;3.77;2.80;;;;;;;20.05;55.73;100551.91;1742119;80;20934;-62
2021/04/21 03:21:39;;;;;;;3.90;2.50;;;;;;;20.04;55.78;100547.51;1772867;79;21453;-62
2021/04/21 03:24:11;;;;;;;3.55;2.95;;;;;;;20.06;55.79;100548.02;1738825;80;21186;-62
2021/04/21 03:26:38;;;;;;;4.05;2.75;;;;;;;20.08;55.78;100552.64;1773446;79;21198;-61
2021/04/21 03:29:07;;;;;;;4.37;2.98;;;;;;;20.10;55.76;100552.89;1768577;79;21558;-62
2021/04/21 03:31:34;;;;;;;3.52;2.58;;;;;;;20.10;55.79;100550.13;1737076;80;21355;-61
2021/04/21 03:34:05;;;;;;;4.58;3.15;;;;;;;20.08;55.76;100555.40;1768804;80;21212;-62
2021/04/21 03:36:31;;;;;;;3.45;2.40;;;;;;;20.07;55.76;100556.53;1770283;79;21196;-61
2021/04/21 03:38:58;;;;;;;3.67;2.52;;;;;;;20.07;55.78;100560.67;1770866;79;23516;-62
2021/04/21 03:41:24;;;;;;;3.47;2.40;;;;;;;20.05;55.78;100564.33;1746868;81;21137;-62
2021/04/21 03:43:50;;;;;;;3.92;3.00;;;;;;;20.05;55.77;100564.33;1773804;79;21437;-63
2021/04/21 03:46:17;;;;;;;4.55;2.65;;;;;;;20.04;55.83;100565.46;1769078;79;21448;-61
2021/04/21 03:48:44;;;;;;;3.10;2.70;;;;;;;20.07;55.83;100573.09;1737346;80;21534;-62
2021/04/21 03:51:10;;;;;;;3.92;2.77;;;;;;;20.08;55.82;100569.77;1720767;80;21401;-62
2021/04/21 03:53:38;;;;;;;3.27;2.98;;;;;;;20.10;55.80;100568.08;1742963;79;21149;-61
2021/04/21 03:56:09;;;;;;;2.70;2.17;;;;;;;20.10;55.76;100574.98;1770181;79;21035;-62
2021/04/21 03:58:36;;;;;;;4.33;2.58;;;;;;;20.08;55.75;100578.88;1742340;79;21201;-62
2021/04/21 04:01:09;;;;;;;4.03;2.67;;;;;;;20.07;55.75;100581.98;1715364;80;21202;-62
2021/04/21 04:03:36;;;;;;;4.15;2.92;;;;;;;20.07;55.74;100583.36;1766119;79;21198;-62
2021/04/21 04:06:17;;;;;;;3.75;2.65;;;;;;;20.04;55.74;100580.64;1739895;80;21154;-62
2021/04/21 04:09:00;;;;;;;3.75;2.85;;;;;;;20.04;55.79;100592.26;1769502;79;21141;-59
2021/04/21 04:11:41;;;;;;;3.40;2.60;;;;;;;20.08;55.85;100594.06;1771695;79;21271;-60
2021/04/21 04:14:16;;;;;;;3.42;2.77;;;;;;;20.15;55.86;100601.09;1771542;79;21157;-60
2021/04/21 04:16:43;;;;;;;4.95;2.90;;;;;;;20.21;55.84;100601.98;1775136;79;22132;-60
2021/04/21 04:19:11;;;;;;;3.92;2.77;;;;;;;20.27;55.76;100610.95;1770967;79;21195;-60
2021/04/21 04:21:39;;;;;;;3.72;2.60;;;;;;;20.31;55.67;100613.36;1772507;80;21242;-60
2021/04/21 04:24:09;;;;;;;4.35;2.98;;;;;;;20.34;55.63;100605.23;1767570;79;21236;-60
2021/04/21 04:26:38;;;;;;;4.12;2.60;;;;;;;20.38;55.60;100613.13;1747273;80;21193;-60
2021/04/21 04:29:05;;;;;;;3.95;2.83;;;;;;;20.42;55.59;100614.68;1729442;81;21351;-61
2021/04/21 04:31:32;;;;;;;3.92;2.60;;;;;;;20.45;55.58;100620.37;1768467;79;21192;-59
2021/04/21 04:33:58;;;;;;;3.45;2.42;;;;;;;20.50;55.53;100616.09;1722926;81;21226;-61
2021/04/21 04:36:25;;;;;;;9.83;5.12;;;;;;;20.53;55.48;100625.70;1773872;79;21144;-60
2021/04/21 04:38:51;;;;;;;3.90;2.80;;;;;;;20.57;55.42;100621.72;1771620;79;21162;-61
2021/04/21 04:41:18;;;;;;;3.72;3.00;;;;;;;20.61;55.38;100624.91;1769613;80;22786;-60
2021/04/21 04:43:44;;;;;;;3.83;2.77;;;;;;;20.65;55.33;100630.03;1766817;79;21196;-60
2021/04/21 04:46:12;;;;;;;3.90;2.83;;;;;;;20.71;55.29;100630.70;1735411;81;21178;-60
2021/04/21 04:48:49;;;;;;;4.03;2.85;;;;;;;20.74;55.25;100636.40;1745030;80;21187;-59
2021/04/21 04:51:16;;;;;;;3.90;2.87;;;;;;;20.77;55.20;100632.16;1768738;80;21584;-61
2021/04/21 04:53:43;;;;;;;4.80;3.45;;;;;;;20.80;55.15;100631.51;1743737;80;22209;-61
2021/04/21 04:56:09;;;;;;;4.55;3.25;;;;;;;20.81;55.12;100631.77;1773512;79;21596;-59
2021/04/21 04:58:36;;;;;;;4.78;3.33;;;;;;;20.83;55.08;100639.18;1740340;79;21467;-61
2021/04/21 05:01:07;;;;;;;5.22;3.65;;;;;;;20.84;55.06;100642.98;1741732;80;21574;-59
2021/04/21 05:03:51;;;;;;;4.85;3.67;;;;;;;20.85;55.03;100636.33;1770335;79;21170;-60
2021/04/21 05:06:23;;;;;;;5.65;3.27;;;;;;;20.87;55.01;100648.45;1768809;79;21208;-60
2021/04/21 05:08:52;;;;;;;5.90;3.62;;;;;;;20.90;55.01;100650.56;1768657;79;21179;-60
2021/04/21 05:11:21;;;;;;;4.08;2.80;;;;;;;20.92;54.98;100650.48;1767951;80;21167;-60
2021/04/21 05:13:49;;;;;;;4.87;3.25;;;;;;;20.95;54.91;100654.56;1764996;79;21203;-60
2021/04/21 05:16:47;;;;;;;3.75;3.00;;;;;;;20.97;54.87;100648.94;1760110;79;21184;-60
2021/04/21 05:19:54;;;;;;;4.30;3.05;;;;;;;21.00;54.84;100657.75;1766916;79;21635;-61
2021/04/21 05:22:49;;;;;;;5.50;3.55;;;;;;;21.00;54.83;100657.18;1763986;79;21912;-60
2021/04/21 05:25:42;;;;;;;6.87;3.45;;;;;;;21.03;54.82;100665.39;1762230;80;21680;-60
2021/04/21 05:28:49;;;;;;;5.42;3.62;;;;;;;21.04;54.84;100669.22;1757060;80;21224;-60
2021/04/21 05:31:54;;;;;;;6.08;4.35;;;;;;;21.08;54.85;100669.38;1738765;81;21275;-61
2021/04/21 05:35:04;;;;;;;7.97;5.97;;;;;;;21.10;54.84;100676.77;1737430;80;21241;-60
2021/04/21 05:38:22;;;;;;;10.05;7.08;;;;;;;21.12;54.84;100675.36;1742863;80;21665;-60
2021/04/21 05:41:22;;;;;;;19.12;10.15;;;;;;;21.15;54.83;100680.23;1738388;80;21245;-60
2021/04/21 05:44:21;;;;;;;28.87;14.05;;;;;;;21.17;54.87;100680.74;1735017;80;21665;-60
2021/04/21 05:47:04;;;;;;;36.23;16.75;;;;;;;21.19;54.92;100681.22;1737961;80;21601;-61
2021/04/21 05:49:45;;;;;;;45.78;20.37;;;;;;;21.18;54.95;100681.53;1739296;80;21283;-62
2021/04/21 05:52:51;;;;;;;42.90;18.80;;;;;;;21.18;55.03;100686.50;1746372;80;21186;-60
2021/04/21 05:55:35;;;;;;;45.35;17.62;;;;;;;21.20;55.16;100683.42;1737265;80;21217;-60
2021/04/21 05:58:20;;;;;;;41.08;19.37;;;;;;;21.22;55.39;100688.86;1739642;80;21202;-60
2021/04/21 06:01:18;;;;;;;32.60;14.68;;;;;;;21.26;55.67;100687.67;1745946;80;21172;-60
2021/04/21 06:03:52;;;;;;;53.63;25.00;;;;;;;21.34;56.04;100693.77;1743539;80;21115;-64
2021/04/21 06:06:18;;;;;;;45.63;20.17;;;;;;;21.41;56.37;100692.14;1735072;80;21640;-62
2021/04/21 06:08:44;;;;;;;57.05;26.55;;;;;;;21.46;56.54;100691.73;1739504;80;21194;-61
2021/04/21 06:11:22;;;;;;;65.00;29.95;;;;;;;21.50;56.66;100697.67;1734927;80;21587;-62
2021/04/21 06:13:55;;;;;;;52.25;24.37;;;;;;;21.54;56.96;100695.06;1744022;80;21233;-61
2021/04/21 06:16:22;;;;;;;40.83;21.73;;;;;;;21.56;57.33;100701.89;1739788;80;21234;-61
2021/04/21 06:19:04;;;;;;;43.65;22.13;;;;;;;21.55;57.41;100704.44;1738620;81;21199;-61
2021/04/21 06:21:35;;;;;;;44.45;21.12;;;;;;;21.53;57.43;100706.70;1765376;80;21185;-61
2021/04/21 06:24:02;;;;;;;37.45;18.23;;;;;;;21.50;57.48;100706.55;1755661;80;21607;-60
2021/04/21 06:26:30;;;;;;;35.83;17.50;;;;;;;21.46;57.51;100705.00;1759738;79;21634;-61
2021/04/21 06:29:06;;;;;;;35.88;17.75;;;;;;;21.44;57.49;100707.27;1763957;80;22159;-60
2021/04/21 06:31:43;;;;;;;34.38;16.30;;;;;;;21.43;57.49;100710.38;1730614;81;21108;-60
2021/04/21 06:34:11;;;;;;;33.42;16.55;;;;;;;21.41;57.50;100714.28;1773919;80;21511;-60
2021/04/21 06:36:55;;;;;;;32.25;16.67;;;;;;;21.40;57.47;100713.21;1751137;81;21669;-60
2021/04/21 06:39:22;;;;;;;35.48;15.85;;;;;;;21.37;57.46;100711.92;1770622;79;21863;-59
2021/04/21 06:41:56;;;;;;;31.27;15.43;;;;;;;21.35;57.43;100713.36;1749493;81;23039;-60
2021/04/21 06:44:46;;;;;;;29.35;14.50;;;;;;;21.34;57.44;100712.55;1872095;75;22837;-61
2021/04/21 06:47:24;;;;;;;31.85;15.15;;;;;;;21.27;57.46;100719.71;1830159;77;21182;-61
2021/04/21 06:50:11;;;;;;;38.25;16.48;;;;;;;21.22;57.49;100713.76;1828149;77;21222;-62
2021/04/21 06:52:44;;;;;;;28.55;14.87;;;;;;;21.18;57.51;100721.64;1835786;77;21134;-62
2021/04/21 06:55:15;;;;;;;26.42;14.03;;;;;;;21.17;57.54;100724.19;1830670;77;21526;-60
2021/04/21 06:57:42;;;;;;;28.47;14.23;;;;;;;21.16;57.54;100717.84;1842298;77;21060;-60
2021/04/21 07:00:13;;;;;;;28.40;14.05;;;;;;;21.18;57.56;100732.15;1834122;77;21177;-61
2021/04/21 07:02:44;;;;;;;32.40;13.28;;;;;;;21.22;57.63;100728.16;1835259;77;21355;-60
2021/04/21 07:05:41;;;;;;;27.15;13.08;;;;;;;21.24;57.70;100723.95;1827063;77;21193;-61
2021/04/21 07:08:32;;;;;;;32.78;15.08;;;;;;;21.25;57.76;100728.36;1828774;77;21050;-61
2021/04/21 07:11:00;;;;;;;26.45;13.62;;;;;;;21.23;57.73;100732.00;1829508;77;20975;-62
2021/04/21 07:13:34;;;;;;;25.02;13.32;;;;;;;21.22;57.66;100724.02;1834672;77;21255;-62
2021/04/21 07:16:02;;;;;;;26.87;13.13;;;;;;;21.19;57.59;100726.05;1832862;77;21608;-60
2021/04/21 07:18:35;;;;;;;27.35;13.58;;;;;;;21.16;57.58;100725.32;1829902;77;21175;-62
2021/04/21 07:21:02;;;;;;;24.12;12.90;;;;;;;21.14;57.56;100732.55;1834437;77;22813;-61
2021/04/21 07:23:29;;;;;;;24.85;12.85;;;;;;;21.15;57.54;100728.66;1834978;77;21710;-60
2021/04/21 07:25:55;;;;;;;25.75;12.40;;;;;;;21.17;57.52;100729.72;1831695;77;21640;-60
2021/04/21 07:28:23;;;;;;;24.90;12.68;;;;;;;21.17;57.46;100731.92;1830113;77;21230;-60
2021/04/21 07:30:52;;;;;;;22.73;11.57;;;;;;;21.17;57.40;100728.34;1828577;77;21201;-60
2021/04/21 07:33:43;;;;;;;22.67;12.03;;;;;;;21.17;57.34;100732.48;1830624;77;21498;-60
2021/04/21 07:36:26;;;;;;;25.85;13.03;;;;;;;21.18;57.32;100738.25;1826630;77;21193;-59
2021/04/21 07:39:05;;;;;;;22.00;12.20;;;;;;;21.17;57.25;100744.94;1827062;77;21668;-60
2021/04/21 07:41:34;;;;;;;21.00;12.13;;;;;;;21.15;57.20;100749.97;1803057;77;22166;-60
2021/04/21 07:44:01;;;;;;;24.25;11.20;;;;;;;21.12;57.18;100743.67;1827019;77;21388;-60
2021/04/21 07:46:28;;;;;;;20.12;10.75;;;;;;;21.11;57.18;100748.39;1828721;77;21550;-60
2021/04/21 07:48:55;;;;;;;24.02;12.93;;;;;;;21.13;57.18;100750.88;1833428;77;21178;-59
2021/04/21 07:51:27;;;;;;;18.52;10.98;;;;;;;21.14;57.15;100753.30;1827890;77;21568;-61
2021/04/21 07:54:06;;;;;;;20.37;11.22;;;;;;;21.15;57.08;100754.94;1842740;77;21474;-60
2021/04/21 07:56:55;;;;;;;22.22;10.65;;;;;;;21.16;57.04;100755.19;1824560;77;21218;-60
2021/04/21 07:59:33;;;;;;;18.85;10.65;;;;;;;21.14;57.02;100754.69;1830638;77;21137;-60
2021/04/21 08:02:20;;;;;;;20.85;11.05;;;;;;;21.13;56.99;100752.26;1828965;77;21160;-60
2021/04/21 08:04:56;;;;;;;18.82;10.45;;;;;;;21.10;56.94;100758.38;1840536;77;21162;-60
2021/04/21 08:07:42;;;;;;;17.42;10.32;;;;;;;21.06;56.94;100759.59;1826639;77;23513;-60
2021/04/21 08:10:17;;;;;;;19.40;10.30;;;;;;;21.02;56.94;100753.08;1828543;77;21060;-60
2021/04/21 08:12:44;;;;;;;17.32;10.58;;;;;;;21.01;56.97;100760.31;1833191;77;21397;-60
2021/04/21 08:15:11;;;;;;;17.23;9.43;;;;;;;21.01;56.95;100764.45;1831707;77;21205;-60
2021/04/21 08:17:57;;;;;;;18.55;10.18;;;;;;;21.01;56.96;100762.51;1828946;77;21615;-60
2021/04/21 08:20:42;;;;;;;18.20;9.93;;;;;;;21.03;56.91;100758.05;1828870;77;21236;-60
2021/04/21 08:23:09;;;;;;;17.17;9.20;;;;;;;21.03;56.87;100764.40;1828957;76;21221;-59
2021/04/21 08:25:36;;;;;;;17.45;9.38;;;;;;;21.01;56.85;100762.51;1826840;77;21245;-59
2021/04/21 08:28:03;;;;;;;18.90;9.68;;;;;;;21.00;56.83;100764.23;1831220;77;22469;-60
2021/04/21 08:30:31;;;;;;;21.50;9.03;;;;;;;20.97;56.84;100765.67;1828832;77;21209;-60
2021/04/21 08:32:57;;;;;;;18.55;9.68;;;;;;;20.94;56.81;100765.76;1836803;77;21028;-60
2021/04/21 08:35:24;;;;;;;16.25;9.33;;;;;;;20.92;56.82;100764.42;1837953;77;21899;-60
2021/04/21 08:37:50;;;;;;;16.70;9.40;;;;;;;20.90;56.83;100764.77;1810388;77;21180;-60
2021/04/21 08:40:20;;;;;;;16.55;9.10;;;;;;;20.90;56.86;100768.09;1839926;77;21165;-60
2021/04/21 08:42:57;;;;;;;16.67;9.68;;;;;;;20.91;56.88;100762.83;1830547;77;21111;-60
2021/04/21 08:45:24;;;;;;;17.73;8.93;;;;;;;20.93;56.88;100762.73;1831078;77;21280;-60
2021/04/21 08:47:50;;;;;;;16.27;8.88;;;;;;;20.94;56.85;100765.76;1831236;77;21151;-61
2021/04/21 08:50:17;;;;;;;14.55;8.83;;;;;;;20.94;56.80;100762.99;1831999;77;21162;-60
2021/04/21 08:52:54;;;;;;;17.20;8.83;;;;;;;20.95;56.79;100763.81;1832120;77;21166;-61
2021/04/21 08:55:20;;;;;;;16.87;8.25;;;;;;;20.94;56.74;100757.46;1844062;75;21525;-60
2021/04/21 08:57:47;;;;;;;16.50;8.85;;;;;;;20.94;56.72;100758.02;1802927;77;21245;-61
2021/04/21 09:00:16;;;;;;;16.10;9.03;;;;;;;20.92;56.70;100761.09;1832950;77;21130;-61
2021/04/21 09:02:43;;;;;;;16.42;8.68;;;;;;;20.91;56.69;100758.67;1831402;77;21207;-60
2021/04/21 09:05:11;;;;;;;16.52;8.38;;;;;;;20.88;56.70;100761.49;1839471;77;21526;-60
2021/04/21 09:07:38;;;;;;;15.72;7.45;;;;;;;20.89;56.70;100757.60;1839180;77;21034;-60
2021/04/21 09:10:11;;;;;;;13.68;7.83;;;;;;;20.91;56.73;100763.64;1840078;77;22316;-61
2021/04/21 09:12:37;;;;;;;14.73;8.43;;;;;;;20.94;56.70;100758.84;1830686;77;21505;-60
2021/04/21 09:15:06;;;;;;;15.23;8.23;;;;;;;20.95;56.65;100754.12;1838929;77;21690;-61
2021/04/21 09:17:32;;;;;;;15.90;7.78;;;;;;;20.95;56.64;100761.05;1839320;77;21201;-60
2021/04/21 09:19:59;;;;;;;15.10;7.62;;;;;;;20.94;56.61;100751.92;1834026;77;21617;-61
2021/04/21 09:22:26;;;;;;;14.80;7.78;;;;;;;20.92;56.59;100763.86;1807852;77;21978;-60
2021/04/21 09:24:59;;;;;;;14.80;8.10;;;;;;;20.91;56.59;100751.20;1831687;77;21912;-61
2021/04/21 09:27:34;;;;;;;16.90;7.90;;;;;;;20.90;56.56;100757.86;1835089;77;21701;-61
2021/04/21 09:30:19;;;;;;;10.23;5.67;;;;;;;20.90;56.58;100755.66;1830518;77;21163;-60
2021/04/21 09:32:54;;;;;;;9.75;5.15;;;;;;;20.91;56.54;100754.53;1832061;77;21181;-61
2021/04/21 09:35:25;;;;;;;8.73;4.80;;;;;;;20.95;56.50;100755.52;1831899;77;21199;-59
2021/04/21 09:37:55;;;;;;;8.95;5.65;;;;;;;20.99;56.41;100760.64;1828274;77;21591;-61
2021/04/21 09:40:38;;;;;;;9.00;5.03;;;;;;;21.04;56.29;100761.89;1809023;77;21168;-61
2021/04/21 09:43:07;;;;;;;8.95;4.40;;;;;;;21.07;56.21;100755.70;1778417;79;21196;-62
2021/04/21 09:45:38;;;;;;;9.35;4.65;;;;;;;21.11;56.09;100755.30;1776748;80;21180;-61
2021/04/21 09:48:16;;;;;;;;;;;;;;;21.15;55.99;100756.88;1776565;79;21217;-60
2021/04/21 09:50:47;;;;;;;7.50;4.78;;;;;;;21.19;55.90;100753.72;1790303;78;20294;-61
2021/04/21 09:53:37;;;;;;;7.62;4.47;;;;;;;21.23;55.84;100758.84;1745078;79;21183;-60
2021/04/21 09:56:27;;;;;;;8.73;5.15;;;;;;;21.25;55.74;100756.59;1767269;80;21191;-61
2021/04/21 09:59:00;;;;;;;8.63;5.00;;;;;;;21.27;55.65;100755.11;1728522;81;21436;-61
2021/04/21 10:01:38;;;;;;;9.60;4.92;;;;;;;21.30;55.57;100757.23;1725882;81;21214;-61
2021/04/21 10:04:13;;;;;;;8.05;5.00;;;;;;;21.32;55.53;100743.08;1720217;81;21684;-60
2021/04/21 10:06:53;;;;;;;8.35;4.67;;;;;;;21.36;55.46;100748.20;1729948;81;21504;-60
2021/04/21 10:09:37;;;;;;;8.25;5.15;;;;;;;21.37;55.41;100743.75;1704129;83;21016;-60
2021/04/21 10:12:24;;;;;;;6.03;3.95;;;;;;;21.40;55.34;100750.01;1755067;80;21544;-60
2021/04/21 10:15:11;;;;;;;8.30;4.95;;;;;;;21.45;55.28;100751.80;1757288;80;21692;-60
2021/04/21 10:17:42;;;;;;;7.10;4.45;;;;;;;21.45;55.22;100747.66;1756903;80;21256;-60
2021/04/21 10:20:12;;;;;;;8.00;5.10;;;;;;;21.47;55.19;100744.57;1760381;80;21507;-60
2021/04/21 10:22:40;;;;;;;9.13;5.40;;;;;;;21.47;55.16;100744.57;1707299;83;21220;-59
2021/04/21 10:25:08;;;;;;;7.90;4.47;;;;;;;21.48;55.15;100730.39;1717747;82;21277;-61
2021/04/21 10:27:35;;;;;;;6.87;4.90;;;;;;;21.53;55.17;100739.10;1763234;79;21241;-60
2021/04/21 10:30:04;;;;;;;6.45;3.75;;;;;;;21.56;55.13;100739.26;1757597;80;21238;-59
2021/04/21 10:32:34;;;;;;;6.78;4.10;;;;;;;21.62;55.06;100745.45;1758095;80;21198;-60
2021/04/21 10:35:01;;;;;;;7.12;3.37;;;;;;;21.68;55.00;100741.40;1747972;80;21199;-60
2021/04/21 10:37:27;;;;;;;7.92;4.03;;;;;;;21.72;54.91;100734.06;1765882;80;21174;-60
2021/04/21 10:39:54;;;;;;;7.08;3.98;;;;;;;21.73;54.83;100731.52;1763230;80;21278;-60
2021/04/21 10:42:22;;;;;;;6.35;3.98;;;;;;;21.76;54.76;100731.70;1756528;80;21240;-61
2021/04/21 10:44:50;;;;;;;7.35;4.85;;;;;;;21.80;54.68;100729.09;1755454;80;21185;-60
2021/04/21 10:47:20;;;;;;;6.45;3.87;;;;;;;21.83;54.62;100725.66;1757619;80;21208;-60
2021/04/21 10:50:04;;;;;;;5.35;3.85;;;;;;;21.86;54.54;100724.98;1760040;80;21611;-60
2021/04/21 10:52:40;;;;;;;5.30;3.60;;;;;;;21.89;54.49;100728.52;1756690;80;22078;-59
2021/04/21 10:55:18;;;;;;;7.78;4.92;;;;;;;21.90;54.44;100730.71;1764019;80;21181;-61
2021/04/21 10:58:04;;;;;;;7.80;3.77;;;;;;;21.90;54.41;100724.58;1762357;80;21110;-60
2021/04/21 11:00:31;;;;;;;5.53;3.10;;;;;;;21.90;54.35;100719.03;1743603;80;21200;-60
2021/04/21 11:03:15;;;;;;;5.30;3.33;;;;;;;21.92;54.31;100713.18;1760519;80;21159;-60
2021/04/21 11:05:45;;;;;;;6.42;3.50;;;;;;;21.95;54.27;100714.75;1761975;80;21850;-61
2021/04/21 11:08:24;;;;;;;6.10;3.20;;;;;;;21.99;54.21;100715.72;1754006;80;21192;-61
2021/04/21 11:11:00;;;;;;;6.10;3.60;;;;;;;22.04;54.16;100716.11;1757128;80;21222;-60
2021/04/21 11:13:39;;;;;;;6.00;3.77;;;;;;;22.07;54.04;100723.76;1722737;81;21502;-60
2021/04/21 11:16:22;;;;;;;7.42;3.45;;;;;;;22.08;53.99;100722.63;1699076;83;21197;-60
2021/04/21 11:18:49;;;;;;;5.58;3.27;;;;;;;22.10;53.92;100723.94;1705667;83;21353;-60
2021/04/21 11:21:21;;;;;;;5.62;3.80;;;;;;;22.12;53.85;100718.86;1761506;80;21053;-60
2021/04/21 11:24:03;;;;;;;4.55;3.30;;;;;;;22.14;53.78;100715.20;1765453;80;21178;-60
2021/04/21 11:26:32;;;;;;;4.87;2.80;;;;;;;22.16;53.74;100719.83;1756962;80;21553;-61
2021/04/21 11:29:08;;;;;;;4.45;3.02;;;;;;;22.18;53.70;100705.09;1770299;80;21149;-60
2021/04/21 11:31:52;;;;;;;6.92;3.35;;;;;;;22.20;53.62;100707.51;1760386;80;21953;-61
2021/04/21 11:34:33;;;;;;;5.65;3.22;;;;;;;22.21;53.56;100698.88;1756897;80;21134;-60
2021/04/21 11:37:06;;;;;;;5.58;3.60;;;;;;;22.23;53.47;100697.17;1768742;80;21173;-61
2021/04/21 11:39:48;;;;;;;5.70;3.33;;;;;;;22.24;53.41;100689.89;1759834;80;21624;-60
2021/04/21 11:42:37;;;;;;;6.83;4.15;;;;;;;22.25;53.33;100710.11;1758840;80;21232;-60
2021/04/21 11:45:21;;;;;;;5.75;3.10;;;;;;;22.23;53.32;100709.07;1757325;80;21236;-60
2021/04/21 11:48:04;;;;;;;5.20;3.52;;;;;;;22.20;53.29;100701.97;1757394;80;21269;-60
2021/04/21 11:50:37;;;;;;;5.22;3.45;;;;;;;22.19;53.27;100701.75;1750414;80;21154;-60
2021/04/21 11:53:13;;;;;;;5.87;3.55;;;;;;;22.15;53.28;100697.41;1746610;80;21173;-59
2021/04/21 11:55:54;;;;;;;7.45;3.67;;;;;;;22.14;53.30;100699.15;1720976;82;22185;-60
2021/04/21 11:58:31;;;;;;;;;;;;;;;22.13;53.32;100708.59;1717021;82;22153;-60
2021/04/21 12:01:23;;;;;;;4.90;3.45;;;;;;;22.13;53.35;100705.83;1712409;82;20300;-61
2021/04/21 12:03:49;;;;;;;4.70;3.20;;;;;;;22.14;53.35;100694.99;1668395;84;21785;-61
2021/04/21 12:06:17;;;;;;;4.20;3.00;;;;;;;22.17;53.28;100702.06;1667914;84;21238;-60